Time;durP1;ratioP1;P1;durP2;ratioP2;P2;SDS_P1;SDS_P2;PMS_P1;PMS_P2;Temp;Humidity;BMP_temperature;BMP_pressure;BME280_temperature;BME280_humidity;BME280_pressure;Samples;Min_cycle;Max_cycle;Signal;HPM_P1;HPM_P2
2022/01/28 00:02:33;;;;;;;25.60;14.80;;;;;;;0.03;100.00;97664.00;5076467;28;20196;-83
2022/01/28 00:05:00;;;;;;;29.10;14.27;;;;;;;0.05;100.00;97683.31;5077472;28;20241;-84
2022/01/28 00:07:27;;;;;;;25.30;15.47;;;;;;;-0.01;100.00;97677.56;5081844;28;20221;-85
2022/01/28 00:09:54;;;;;;;25.70;15.17;;;;;;;-0.06;100.00;97674.44;5083657;28;20216;-84
2022/01/28 00:12:23;;;;;;;26.17;14.87;;;;;;;-0.06;100.00;97678.91;5081004;28;20197;-83
2022/01/28 00:15:00;;;;;;;29.40;15.03;;;;;;;-0.07;100.00;97666.59;5081341;28;20212;-84
2022/01/28 00:18:02;;;;;;;26.67;14.93;;;;;;;-0.03;100.00;97686.63;5083712;28;20206;-83
2022/01/28 00:20:59;;;;;;;27.83;14.87;;;;;;;0.02;100.00;97694.16;5079061;28;20206;-84
2022/01/28 00:37:25;;;;;;;27.97;14.50;;;;;;;-0.03;100.00;97687.47;5081855;28;20196;-85
2022/01/28 00:39:52;;;;;;;25.43;13.40;;;;;;;-0.09;100.00;97690.66;5080647;28;20188;-84
2022/01/28 00:42:19;;;;;;;24.07;14.37;;;;;;;-0.04;100.00;97699.06;5080227;28;20284;-84
2022/01/28 00:44:46;;;;;;;23.00;13.00;;;;;;;-0.06;100.00;97697.50;5080744;28;20218;-84
2022/01/28 00:47:15;;;;;;;26.67;14.70;;;;;;;-0.06;100.00;97700.16;5087238;28;20267;-84
2022/01/28 00:49:42;;;;;;;25.40;14.83;;;;;;;-0.09;100.00;97682.69;5080993;28;20469;-84
2022/01/28 00:52:09;;;;;;;31.17;16.67;;;;;;;-0.09;100.00;97690.66;5081340;28;20213;-83
2022/01/28 00:54:36;;;;;;;26.63;14.97;;;;;;;-0.16;100.00;97683.31;5078900;28;20201;-83
2022/01/28 00:57:04;;;;;;;27.77;15.47;;;;;;;-0.14;100.00;97682.22;5071657;28;20228;-84
2022/01/28 00:59:31;;;;;;;29.20;14.87;;;;;;;-0.15;100.00;97675.22;5070481;28;20197;-85
2022/01/28 01:01:58;;;;;;;25.97;15.20;;;;;;;-0.22;100.00;97681.19;5076809;28;20296;-85
2022/01/28 01:04:26;;;;;;;26.70;15.47;;;;;;;-0.11;100.00;97655.41;5088558;28;20312;-85
2022/01/28 01:06:53;;;;;;;28.63;15.57;;;;;;;-0.15;100.00;97661.09;5081568;28;20240;-84
2022/01/28 01:09:20;;;;;;;27.80;16.20;;;;;;;-0.18;100.00;97667.53;5081118;28;20215;-84
2022/01/28 01:11:47;;;;;;;27.90;15.33;;;;;;;-0.20;100.00;97672.13;5075614;28;20295;-84
2022/01/28 01:14:14;;;;;;;27.23;15.23;;;;;;;-0.17;100.00;97661.22;5086919;28;20205;-84
2022/01/28 01:16:57;;;;;;;24.27;14.30;;;;;;;-0.17;100.00;97661.22;5077081;28;20205;-85
2022/01/28 01:19:30;;;;;;;28.43;15.80;;;;;;;-0.20;100.00;97661.50;5081227;28;20299;-84
2022/01/28 01:21:59;;;;;;;27.93;14.23;;;;;;;-0.23;100.00;97645.84;5078070;28;20249;-85
2022/01/28 01:24:34;;;;;;;30.53;15.83;;;;;;;-0.24;100.00;97646.81;5083958;28;20320;-85
2022/01/28 01:27:01;;;;;;;26.37;15.40;;;;;;;-0.20;100.00;97645.59;5095388;28;20197;-84
2022/01/28 01:29:28;;;;;;;28.27;16.67;;;;;;;-0.19;100.00;97641.13;5075637;28;20203;-82
2022/01/28 01:32:01;;;;;;;29.50;16.60;;;;;;;-0.27;100.00;97635.63;5095994;28;20240;-84
2022/01/28 01:34:30;;;;;;;30.90;16.30;;;;;;;-0.35;100.00;97638.94;5079959;28;20255;-84
2022/01/28 01:36:57;;;;;;;34.33;16.10;;;;;;;-0.30;100.00;97638.53;5080657;28;20203;-83
2022/01/28 01:39:27;;;;;;;25.87;15.70;;;;;;;-0.32;100.00;97646.63;5084401;28;20213;-83
2022/01/28 01:41:58;;;;;;;27.87;16.30;;;;;;;-0.34;100.00;97653.88;5077427;28;20202;-83
2022/01/28 01:44:37;;;;;;;28.83;16.40;;;;;;;-0.34;100.00;97664.50;5088381;28;20221;-84
2022/01/28 01:52:43;;;;;;;25.83;15.90;;;;;;;-0.35;100.00;97668.13;5081353;28;20293;-84
2022/01/28 01:55:10;;;;;;;25.17;15.60;;;;;;;-0.46;100.00;97666.38;5082596;28;20213;-84
2022/01/28 01:57:38;;;;;;;27.77;15.80;;;;;;;-0.46;100.00;97661.09;5075476;28;20230;-83
2022/01/28 02:00:07;;;;;;;30.20;16.40;;;;;;;-0.43;100.00;97665.28;5081974;28;20224;-85
2022/01/28 02:02:35;;;;;;;27.07;15.73;;;;;;;-0.40;100.00;97667.66;5080271;28;20206;-83
2022/01/28 02:05:04;;;;;;;28.37;15.77;;;;;;;-0.41;100.00;97663.34;5090998;28;20311;-84
2022/01/28 02:07:31;;;;;;;27.80;15.13;;;;;;;-0.43;100.00;97665.28;5071670;28;20279;-82
2022/01/28 02:09:58;;;;;;;27.17;15.53;;;;;;;-0.33;100.00;97679.44;5082006;28;20221;-84
2022/01/28 02:12:25;;;;;;;28.97;15.73;;;;;;;-0.47;100.00;97672.66;5076422;28;20217;-83
2022/01/28 02:14:52;;;;;;;31.63;16.20;;;;;;;-0.41;100.00;97687.22;5073361;28;20210;-85
2022/01/28 02:17:19;;;;;;;28.67;16.47;;;;;;;-0.43;100.00;97686.53;5076315;28;20308;-85
2022/01/28 02:19:46;;;;;;;25.27;14.90;;;;;;;-0.43;100.00;97683.88;5086677;28;20199;-83
2022/01/28 02:22:15;;;;;;;30.03;16.17;;;;;;;-0.51;100.00;97691.63;5086083;28;20288;-85
2022/01/28 02:24:44;;;;;;;28.40;15.90;;;;;;;-0.56;100.00;97699.97;5084703;28;20225;-84
2022/01/28 02:27:15;;;;;;;27.90;16.10;;;;;;;-0.59;100.00;97696.72;5076796;28;20270;-85
2022/01/28 02:29:44;;;;;;;31.17;17.20;;;;;;;-0.57;100.00;97706.25;5084956;28;20236;-84
2022/01/28 02:32:11;;;;;;;28.70;16.93;;;;;;;-0.58;100.00;97717.81;5074622;28;20225;-86
2022/01/28 02:34:40;;;;;;;28.90;16.17;;;;;;;-0.54;100.00;97710.47;5075838;28;20236;-85
2022/01/28 02:37:07;;;;;;;28.57;16.90;;;;;;;-0.51;100.00;97713.69;5074871;28;20207;-83
2022/01/28 02:39:35;;;;;;;29.00;15.90;;;;;;;-0.46;100.00;97718.63;5088455;28;20226;-83
2022/01/28 02:42:12;;;;;;;28.83;16.43;;;;;;;-0.43;100.00;97721.03;5080641;28;20300;-84
2022/01/28 02:44:47;;;;;;;28.30;16.10;;;;;;;-0.46;100.00;97713.31;5084243;28;20239;-83
2022/01/28 02:47:17;;;;;;;29.63;16.40;;;;;;;-0.49;100.00;97714.41;5083681;28;20203;-86
2022/01/28 02:49:45;;;;;;;29.13;17.00;;;;;;;-0.50;100.00;97706.56;5107869;27;20204;-85
2022/01/28 02:52:20;;;;;;;30.47;17.23;;;;;;;-0.46;100.00;97713.31;5083230;28;20201;-84
2022/01/28 02:54:50;;;;;;;29.40;17.20;;;;;;;-0.50;100.00;97717.16;5087984;28;20227;-85
2022/01/28 02:57:23;;;;;;;28.03;15.53;;;;;;;-0.48;100.00;97720.53;5081137;28;21008;-82
2022/01/28 02:59:50;;;;;;;31.37;16.77;;;;;;;-0.57;100.00;97726.63;5073415;28;20209;-84
2022/01/28 03:02:17;;;;;;;29.27;16.13;;;;;;;-0.61;100.00;97725.22;5083704;28;20201;-85
2022/01/28 03:05:07;;;;;;;30.63;16.03;;;;;;;-0.57;100.00;97729.28;5087361;28;20274;-85
2022/01/28 03:07:34;;;;;;;29.23;16.57;;;;;;;-0.58;100.00;97728.44;5074506;28;20220;-83
2022/01/28 03:10:26;;;;;;;30.10;16.63;;;;;;;-0.51;100.00;97736.75;5083548;28;20201;-84
2022/01/28 03:13:16;;;;;;;27.57;16.53;;;;;;;-0.48;100.00;97731.16;5080896;28;20209;-81
2022/01/28 03:15:51;;;;;;;34.90;17.50;;;;;;;-0.51;100.00;97736.75;5083407;28;20231;-86
2022/01/28 03:18:21;;;;;;;31.30;17.50;;;;;;;-0.50;100.00;97728.63;5077734;28;20205;-84
2022/01/28 03:20:59;;;;;;;31.03;16.83;;;;;;;-0.43;100.00;97739.59;5079694;28;20269;-83
2022/01/28 03:23:27;;;;;;;27.97;16.30;;;;;;;-0.39;100.00;97741.00;5096780;28;20216;-84
2022/01/28 03:25:56;;;;;;;32.13;17.17;;;;;;;-0.34;100.00;97757.38;5088414;28;20216;-86
2022/01/28 03:28:23;;;;;;;31.40;17.90;;;;;;;-0.31;100.00;97743.84;5085162;28;20198;-85
2022/01/28 03:30:50;;;;;;;33.20;17.63;;;;;;;-0.27;100.00;97755.91;5086540;28;20271;-85
2022/01/28 03:33:17;;;;;;;33.00;17.63;;;;;;;-0.26;100.00;97757.59;5086010;28;20218;-82
2022/01/28 03:35:44;;;;;;;31.67;17.27;;;;;;;-0.23;100.00;97762.63;5081927;28;20212;-84
2022/01/28 03:38:12;;;;;;;31.23;18.47;;;;;;;-0.20;100.00;97767.69;5084134;28;20206;-83
2022/01/28 03:40:41;;;;;;;28.23;16.33;;;;;;;-0.18;100.00;97772.88;5076216;28;20218;-84
2022/01/28 03:43:10;;;;;;;31.10;17.47;;;;;;;-0.07;100.00;97778.97;5091031;28;20208;-85
2022/01/28 03:45:37;;;;;;;33.07;17.80;;;;;;;-0.14;100.00;97774.28;5084806;28;20213;-85
2022/01/28 03:48:05;;;;;;;27.63;16.63;;;;;;;-0.11;100.00;97788.16;5082640;28;20202;-84
2022/01/28 03:50:34;;;;;;;31.10;17.00;;;;;;;-0.12;100.00;97789.13;5087752;28;20304;-84
2022/01/28 03:53:01;;;;;;;29.50;17.57;;;;;;;-0.12;100.00;97791.78;5074823;28;20206;-84
2022/01/28 03:55:28;;;;;;;31.63;17.43;;;;;;;-0.16;100.00;97790.34;5068477;28;20312;-85
2022/01/28 03:57:55;;;;;;;32.13;17.63;;;;;;;-0.19;100.00;97795.94;5076648;28;20210;-84
2022/01/28 04:00:26;;;;;;;34.13;19.13;;;;;;;-0.21;100.00;97784.59;5077967;28;20210;-85
2022/01/28 04:03:03;;;;;;;32.83;17.67;;;;;;;-0.18;100.00;97792.31;5077807;28;20201;-85
2022/01/28 04:13:46;;;;;;;33.30;18.50;;;;;;;-0.30;100.00;97790.66;5081856;28;20200;-85
2022/01/28 04:16:29;;;;;;;38.23;20.00;;;;;;;-0.28;100.00;97790.56;5084803;28;20349;-84
2022/01/28 04:18:57;;;;;;;31.47;18.37;;;;;;;-0.28;100.00;97791.38;5077962;28;20221;-83
2022/01/28 04:21:24;;;;;;;34.13;19.90;;;;;;;-0.32;100.00;97786.44;5083944;28;20199;-84
2022/01/28 04:23:51;;;;;;;34.93;19.00;;;;;;;-0.32;100.00;97782.00;5078484;28;20202;-85
2022/01/28 04:26:18;;;;;;;36.17;19.43;;;;;;;-0.33;100.00;97777.66;5086280;28;20312;-84
2022/01/28 04:28:45;;;;;;;32.57;19.13;;;;;;;-0.23;100.00;97775.91;5079258;28;20227;-85
2022/01/28 04:31:12;;;;;;;36.30;20.10;;;;;;;-0.28;100.00;97779.94;5085020;28;20218;-86
2022/01/28 04:33:41;;;;;;;33.50;19.60;;;;;;;-0.29;100.00;97778.25;5084855;28;20213;-84
2022/01/28 04:36:11;;;;;;;34.90;19.77;;;;;;;-0.28;100.00;97795.84;5075153;28;20327;-86
2022/01/28 04:38:45;;;;;;;37.90;20.77;;;;;;;-0.28;100.00;97795.84;5084919;28;20305;-83
2022/01/28 04:41:24;;;;;;;35.03;18.40;;;;;;;-0.30;100.00;97787.16;5089260;28;20185;-84
2022/01/28 04:43:57;;;;;;;38.17;19.60;;;;;;;-0.32;100.00;97797.06;5071481;28;20209;-82
2022/01/28 04:46:33;;;;;;;34.43;20.00;;;;;;;-0.29;100.00;97789.72;5072926;28;20225;-85
2022/01/28 04:49:08;;;;;;;37.03;18.77;;;;;;;-0.26;100.00;97788.63;5073846;28;20200;-85
2022/01/28 04:51:52;;;;;;;35.93;20.47;;;;;;;-0.25;100.00;97785.81;5072181;28;20224;-85
2022/01/28 04:54:38;;;;;;;33.43;19.20;;;;;;;-0.27;100.00;97795.75;5082485;28;20205;-84
2022/01/28 04:57:16;;;;;;;39.97;21.07;;;;;;;-0.26;100.00;97784.16;5078336;28;20205;-84
2022/01/28 04:59:56;;;;;;;58.07;33.83;;;;;;;-0.18;100.00;97792.31;5078134;28;20205;-83
2022/01/28 05:02:47;;;;;;;58.33;31.60;;;;;;;-0.25;100.00;97788.47;5082520;28;20200;-84
2022/01/28 05:08:20;;;;;;;52.43;29.33;;;;;;;-0.23;100.00;97786.53;5074888;28;20193;-85
2022/01/28 05:11:09;;;;;;;43.57;23.43;;;;;;;-0.21;100.00;97784.59;5079816;28;20205;-86
2022/01/28 05:14:10;;;;;;;42.37;24.27;;;;;;;-0.14;100.00;97791.06;5070593;28;20235;-84
2022/01/28 05:17:04;;;;;;;43.80;25.10;;;;;;;-0.11;100.00;97798.78;5093255;28;20203;-84
2022/01/28 05:27:46;;;;;;;54.57;27.77;;;;;;;-0.08;100.00;97802.97;5071239;28;20201;-84
2022/01/28 05:30:14;;;;;;;47.00;24.23;;;;;;;-0.01;100.00;97823.59;5080016;28;20201;-85
2022/01/28 05:32:42;;;;;;;39.60;21.90;;;;;;;-0.06;100.00;97816.97;5083971;28;20201;-84
2022/01/28 05:35:10;;;;;;;41.33;22.67;;;;;;;-0.05;100.00;97822.16;5080689;28;20222;-83
2022/01/28 05:37:38;;;;;;;41.90;22.63;;;;;;;-0.05;100.00;97819.50;5081812;28;20223;-84
2022/01/28 05:40:07;;;;;;;43.50;22.03;;;;;;;-0.03;100.00;97822.88;5081950;28;20213;-84
2022/01/28 05:42:34;;;;;;;38.77;21.07;;;;;;;0.00;100.00;97806.69;5081174;28;20524;-84
2022/01/28 05:45:01;;;;;;;40.90;21.90;;;;;;;0.19;100.00;97815.75;5080439;28;20204;-85
2022/01/28 05:47:29;;;;;;;41.27;21.27;;;;;;;0.32;100.00;97821.72;5085967;28;20438;-83
2022/01/28 05:49:56;;;;;;;46.17;21.33;;;;;;;0.31;100.00;97814.72;5080083;28;20318;-85
2022/01/28 05:52:23;;;;;;;35.07;20.47;;;;;;;0.44;100.00;97820.66;5091694;28;20302;-84
2022/01/28 05:54:51;;;;;;;33.87;20.27;;;;;;;0.48;100.00;97838.03;5072788;28;20197;-83
2022/01/28 05:57:18;;;;;;;36.17;19.93;;;;;;;0.48;100.00;97824.75;5084220;28;20196;-84
2022/01/28 05:59:45;;;;;;;38.67;21.07;;;;;;;0.55;100.00;97838.34;5085542;28;20195;-84
2022/01/28 06:02:12;;;;;;;38.10;20.80;;;;;;;0.61;100.00;97843.97;5084595;28;20212;-84
2022/01/28 06:04:40;;;;;;;32.43;19.73;;;;;;;0.68;100.00;97845.13;5081227;28;20236;-84
2022/01/28 06:07:07;;;;;;;32.13;18.97;;;;;;;0.77;100.00;97847.00;5077871;28;20228;-86
2022/01/28 06:09:34;;;;;;;32.97;19.03;;;;;;;0.71;100.00;97854.66;5082610;28;20303;-84
2022/01/28 06:12:02;;;;;;;30.70;18.60;;;;;;;0.86;100.00;97857.81;5084506;28;20205;-84
2022/01/28 06:14:29;;;;;;;31.83;18.33;;;;;;;0.92;100.00;97867.94;5078305;28;20207;-86
2022/01/28 06:16:57;;;;;;;33.00;20.37;;;;;;;0.93;100.00;97874.94;5081570;28;20201;-87
2022/01/28 06:19:24;;;;;;;37.53;19.33;;;;;;;0.91;100.00;97876.88;5071204;28;20214;-84
2022/01/28 06:21:51;;;;;;;38.13;20.73;;;;;;;0.98;100.00;97884.19;5080210;28;20300;-85
2022/01/28 06:24:18;;;;;;;35.93;21.10;;;;;;;1.01;100.00;97877.78;5080403;28;20202;-85
2022/01/28 06:26:47;;;;;;;34.57;19.23;;;;;;;1.16;100.00;97872.91;5086878;28;20239;-86
2022/01/28 06:29:15;;;;;;;36.57;19.83;;;;;;;1.12;100.00;97885.63;5081435;28;20262;-84
2022/01/28 06:31:43;;;;;;;33.37;19.17;;;;;;;1.07;100.00;97891.38;5078763;28;20205;-85
2022/01/28 06:34:10;;;;;;;34.50;19.37;;;;;;;1.06;100.00;97894.16;5087264;28;20204;-85
2022/01/28 06:36:37;;;;;;;34.00;19.20;;;;;;;1.10;100.00;97899.09;5082103;28;20304;-85
2022/01/28 06:39:05;;;;;;;29.93;18.50;;;;;;;1.08;100.00;97917.00;5083273;28;20307;-85
2022/01/28 06:41:32;;;;;;;28.00;17.80;;;;;;;1.06;100.00;97897.66;5086297;28;20223;-84
2022/01/28 06:43:59;;;;;;;29.53;18.00;;;;;;;1.12;100.00;97905.09;5081589;28;20204;-86
2022/01/28 06:46:28;;;;;;;29.00;18.00;;;;;;;1.13;100.00;97898.81;5081853;28;20254;-86
2022/01/28 06:48:55;;;;;;;29.90;17.23;;;;;;;1.23;100.00;97898.84;5085950;28;20208;-85
2022/01/28 06:51:22;;;;;;;35.93;19.73;;;;;;;1.09;100.00;97880.59;5086110;28;20209;-86
2022/01/28 06:53:49;;;;;;;34.13;18.40;;;;;;;1.15;100.00;97893.38;5084929;28;20216;-87
2022/01/28 06:56:16;;;;;;;30.43;18.03;;;;;;;1.10;100.00;97893.78;5089688;28;20201;-86
2022/01/28 06:58:43;;;;;;;30.07;18.50;;;;;;;1.20;100.00;97898.25;5084047;28;20209;-86
2022/01/28 07:01:10;;;;;;;31.33;17.57;;;;;;;1.17;100.00;97915.38;5081408;28;20232;-86
2022/01/28 07:03:39;;;;;;;26.97;16.97;;;;;;;1.21;100.00;97922.09;5073868;28;20200;-86
2022/01/28 07:06:06;;;;;;;28.47;17.37;;;;;;;1.19;100.00;97921.41;5084166;28;20259;-86
2022/01/28 07:08:33;;;;;;;31.83;17.93;;;;;;;1.20;100.00;97916.88;5081582;28;20208;-87
2022/01/28 07:11:01;;;;;;;30.43;17.90;;;;;;;1.20;100.00;97922.22;5076967;28;20201;-87
2022/01/28 07:13:28;;;;;;;30.83;17.57;;;;;;;1.22;100.00;97923.78;5085771;28;20201;-86
2022/01/28 07:15:55;;;;;;;29.37;15.93;;;;;;;1.26;100.00;97927.88;5083051;28;20269;-86
2022/01/28 07:18:24;;;;;;;30.07;17.17;;;;;;;1.25;100.00;97923.53;5076667;28;20227;-86
2022/01/28 07:20:53;;;;;;;28.57;16.37;;;;;;;1.32;100.00;97932.66;5092253;28;20204;-85
2022/01/28 07:23:20;;;;;;;32.23;17.37;;;;;;;1.31;100.00;97943.41;5080405;28;20212;-85
2022/01/28 07:25:47;;;;;;;27.33;16.63;;;;;;;1.27;100.00;97944.69;5090072;28;20204;-86
2022/01/28 07:28:14;;;;;;;34.27;16.30;;;;;;;1.31;100.00;97952.25;5088649;28;20304;-86
2022/01/28 07:30:41;;;;;;;28.27;16.47;;;;;;;1.31;100.00;97948.75;5084407;28;20204;-86
2022/01/28 07:33:10;;;;;;;27.80;16.57;;;;;;;1.27;100.00;97948.19;5075693;28;20201;-86
2022/01/28 07:35:37;;;;;;;27.53;16.60;;;;;;;1.28;100.00;97963.16;5079392;28;20201;-84
2022/01/28 07:38:06;;;;;;;29.23;15.43;;;;;;;1.23;100.00;97960.06;5079236;28;20202;-88
2022/01/28 07:40:33;;;;;;;24.57;14.70;;;;;;;1.31;100.00;97973.53;5085678;28;20216;-85
2022/01/28 07:43:00;;;;;;;24.23;15.30;;;;;;;1.31;100.00;97973.53;5079305;28;20239;-85
2022/01/28 07:45:28;;;;;;;27.27;14.90;;;;;;;1.43;100.00;97985.78;5080939;28;20253;-85
2022/01/28 07:47:55;;;;;;;21.57;13.17;;;;;;;1.46;100.00;97984.66;5083537;28;20307;-87
2022/01/28 07:50:22;;;;;;;22.70;13.53;;;;;;;1.47;100.00;97991.69;5080245;28;20200;-86
2022/01/28 07:52:49;;;;;;;25.63;14.77;;;;;;;1.50;100.00;97997.59;5081797;28;20212;-87
2022/01/28 07:55:18;;;;;;;27.67;16.80;;;;;;;1.51;100.00;97977.97;5084069;28;20276;-81
2022/01/28 07:57:46;;;;;;;20.83;13.93;;;;;;;1.62;100.00;97978.84;5076225;28;20201;-81
2022/01/28 08:00:15;;;;;;;24.53;13.77;;;;;;;1.61;100.00;97979.84;5073381;28;20223;-81
2022/01/28 08:02:44;;;;;;;20.30;12.33;;;;;;;1.67;100.00;97979.28;5083359;28;20336;-81
2022/01/28 08:05:12;;;;;;;22.40;14.13;;;;;;;1.71;100.00;97988.69;5081833;28;20307;-81
2022/01/28 08:07:39;;;;;;;20.23;13.03;;;;;;;1.77;100.00;97993.47;5078697;28;20278;-81
2022/01/28 08:10:07;;;;;;;20.57;12.97;;;;;;;1.81;100.00;97989.56;5083945;28;20283;-82
2022/01/28 08:12:44;;;;;;;22.30;12.87;;;;;;;1.86;100.00;97995.34;5081657;28;20307;-82
2022/01/28 08:15:11;;;;;;;22.63;13.27;;;;;;;1.88;100.00;97996.03;5073355;28;20482;-81
2022/01/28 08:17:38;;;;;;;19.83;12.20;;;;;;;1.87;100.00;97983.72;5073330;28;20209;-81
2022/01/28 08:20:07;;;;;;;19.83;12.37;;;;;;;1.93;100.00;98003.63;5082477;28;20208;-81
2022/01/28 08:22:43;;;;;;;22.17;13.03;;;;;;;1.91;100.00;98001.09;5079465;28;20211;-82
2022/01/28 08:25:10;;;;;;;18.80;12.37;;;;;;;1.90;100.00;97992.25;5081862;28;20283;-83
2022/01/28 08:27:38;;;;;;;20.23;12.50;;;;;;;2.00;100.00;97992.28;5078724;28;20315;-81
2022/01/28 08:30:07;;;;;;;22.00;13.57;;;;;;;1.96;100.00;97980.19;5082009;28;20208;-82
2022/01/28 08:32:34;;;;;;;20.37;13.10;;;;;;;2.06;100.00;97983.72;5081384;28;20223;-81
2022/01/28 08:35:01;;;;;;;21.20;12.27;;;;;;;2.06;100.00;97994.38;5070692;28;20231;-82
2022/01/28 08:37:28;;;;;;;31.80;20.07;;;;;;;2.16;100.00;97997.91;5090906;28;20209;-82
2022/01/28 08:39:55;;;;;;;24.03;14.83;;;;;;;2.17;100.00;97998.75;5078292;28;20199;-83
2022/01/28 08:42:22;;;;;;;28.80;16.30;;;;;;;2.17;100.00;97996.09;5075738;28;20292;-82
2022/01/28 08:44:50;;;;;;;24.07;14.63;;;;;;;2.19;100.00;97989.66;5082613;28;20230;-82
2022/01/28 08:47:18;;;;;;;21.80;14.60;;;;;;;2.38;100.00;98012.00;5080836;28;20252;-82
2022/01/28 08:49:45;;;;;;;22.60;13.07;;;;;;;2.37;100.00;98002.31;5079090;28;20209;-82
2022/01/28 08:52:12;;;;;;;26.93;14.37;;;;;;;2.45;100.00;98013.97;5073961;28;20208;-82
2022/01/28 08:54:39;;;;;;;25.17;13.87;;;;;;;2.48;100.00;98010.16;5079063;28;20497;-82
2022/01/28 08:57:07;;;;;;;26.60;13.80;;;;;;;2.58;100.00;98016.34;5081980;28;20199;-82
2022/01/28 08:59:34;;;;;;;23.10;13.73;;;;;;;2.65;100.00;98004.13;5084180;28;20228;-83
2022/01/28 09:02:02;;;;;;;23.57;13.77;;;;;;;2.71;100.00;98006.25;5082463;28;20203;-82
2022/01/28 09:04:29;;;;;;;24.30;14.30;;;;;;;2.78;100.00;98011.84;5081699;28;20236;-82
2022/01/28 09:06:57;;;;;;;26.70;16.10;;;;;;;2.75;100.00;98006.78;5072941;28;20289;-83
2022/01/28 09:09:24;;;;;;;27.80;16.60;;;;;;;2.68;100.00;98019.84;5070621;28;20197;-83
2022/01/28 09:12:05;;;;;;;30.57;17.97;;;;;;;2.70;100.00;98022.38;5083042;28;20215;-81
2022/01/28 09:14:32;;;;;;;29.87;18.37;;;;;;;2.72;100.00;98018.59;5072918;28;20503;-83
2022/01/28 09:16:59;;;;;;;28.80;16.47;;;;;;;2.77;100.00;98015.50;5075244;28;20197;-82
2022/01/28 09:19:27;;;;;;;26.60;15.43;;;;;;;2.81;100.00;98031.06;5073360;28;20204;-82
2022/01/28 09:21:54;;;;;;;27.43;16.27;;;;;;;2.85;100.00;98042.31;5076166;28;20212;-82
2022/01/28 09:24:22;;;;;;;25.67;14.67;;;;;;;2.92;100.00;98033.59;5077531;28;20201;-81
2022/01/28 09:26:49;;;;;;;24.10;15.47;;;;;;;3.03;100.00;98030.81;5074746;28;20239;-82
2022/01/28 09:29:16;;;;;;;27.20;14.73;;;;;;;3.11;100.00;98030.09;5073366;28;20508;-80
2022/01/28 09:31:44;;;;;;;21.13;13.87;;;;;;;3.15;100.00;98036.81;5086001;28;20223;-81
2022/01/28 09:34:11;;;;;;;21.53;14.53;;;;;;;3.23;100.00;98033.44;5075843;28;20209;-81
2022/01/28 09:36:39;;;;;;;24.13;14.80;;;;;;;3.29;100.00;98032.88;5084218;28;20292;-81
2022/01/28 09:39:07;;;;;;;23.80;14.87;;;;;;;3.29;100.00;98033.72;5094370;28;20207;-81
2022/01/28 09:41:36;;;;;;;23.20;14.10;;;;;;;3.24;100.00;98043.13;5082596;28;20212;-81
2022/01/28 09:44:03;;;;;;;22.33;13.23;;;;;;;3.19;100.00;98048.06;5074844;28;20212;-81
2022/01/28 09:46:31;;;;;;;19.60;13.33;;;;;;;3.19;100.00;98056.06;5086352;28;20204;-82
2022/01/28 09:48:58;;;;;;;22.47;14.17;;;;;;;3.27;100.00;98062.38;5087944;28;20216;-81
2022/01/28 09:51:26;;;;;;;20.53;12.73;;;;;;;3.36;100.00;98055.31;5083933;28;20212;-81
2022/01/28 09:53:55;;;;;;;21.53;14.03;;;;;;;3.42;100.00;98055.59;5086477;28;20288;-82
2022/01/28 09:56:22;;;;;;;20.73;12.60;;;;;;;3.58;100.00;98057.66;5088080;28;20202;-82
2022/01/28 09:58:49;;;;;;;23.23;13.23;;;;;;;3.70;100.00;98063.69;5077585;28;20351;-82
2022/01/28 10:01:16;;;;;;;21.83;12.33;;;;;;;3.80;100.00;98062.66;5077966;28;20209;-81
2022/01/28 10:03:43;;;;;;;18.63;12.17;;;;;;;3.94;100.00;98055.16;5082754;28;20292;-82
2022/01/28 10:06:10;;;;;;;19.80;12.73;;;;;;;4.01;100.00;98066.91;5074891;28;20244;-82
2022/01/28 10:08:37;;;;;;;19.23;11.37;;;;;;;4.07;100.00;98066.34;5079192;28;20312;-81
2022/01/28 10:11:10;;;;;;;14.77;11.13;;;;;;;4.10;100.00;98060.69;5081061;28;20286;-83
2022/01/28 10:13:41;;;;;;;19.77;11.27;;;;;;;4.30;100.00;98066.78;5079562;28;20301;-83
2022/01/28 10:16:12;;;;;;;18.10;11.30;;;;;;;4.43;100.00;98070.78;5070931;28;20205;-83
2022/01/28 10:18:42;;;;;;;17.43;10.53;;;;;;;4.56;100.00;98073.97;5079752;28;20201;-84
2022/01/28 10:21:25;;;;;;;17.37;10.43;;;;;;;4.73;100.00;98068.78;5082946;28;20234;-82
2022/01/28 10:24:02;;;;;;;18.67;11.70;;;;;;;4.83;100.00;98075.75;5084967;28;20424;-82
2022/01/28 10:26:33;;;;;;;17.03;10.63;;;;;;;4.95;100.00;98062.97;5085622;28;20469;-83
2022/01/28 10:29:02;;;;;;;15.57;10.30;;;;;;;4.97;100.00;98073.53;5084062;28;20212;-82
2022/01/28 10:31:50;;;;;;;15.70;10.20;;;;;;;4.87;100.00;98061.06;5084914;28;20303;-83
2022/01/28 10:34:23;;;;;;;16.40;10.43;;;;;;;4.96;100.00;98061.97;5086729;28;20228;-82
2022/01/28 10:36:52;;;;;;;18.20;11.40;;;;;;;5.17;100.00;98057.16;5074399;28;20274;-83
2022/01/28 10:39:21;;;;;;;17.70;10.00;;;;;;;5.44;100.00;98055.34;5083121;28;20215;-83
2022/01/28 10:41:58;;;;;;;15.10;10.13;;;;;;;5.59;100.00;98043.06;5077854;28;20209;-83
2022/01/28 10:44:27;;;;;;;13.63;9.13;;;;;;;5.64;100.00;98049.63;5084256;28;20220;-83
2022/01/28 10:46:58;;;;;;;12.50;8.47;;;;;;;5.88;100.00;98051.63;5072468;28;20224;-82
2022/01/28 10:49:33;;;;;;;13.27;9.50;;;;;;;6.09;100.00;98053.91;5071768;28;20250;-83
2022/01/28 10:52:11;;;;;;;14.37;8.67;;;;;;;6.21;100.00;98046.44;5085428;28;20265;-82
2022/01/28 10:54:41;;;;;;;13.50;9.33;;;;;;;6.38;100.00;98046.31;5080882;28;20197;-82
2022/01/28 10:57:10;;;;;;;13.80;8.67;;;;;;;6.68;100.00;98046.75;5084175;28;20254;-83
2022/01/28 10:59:40;;;;;;;14.73;9.43;;;;;;;6.73;100.00;98034.50;5079512;28;20214;-83
2022/01/28 11:02:08;;;;;;;12.73;9.10;;;;;;;6.71;100.00;98025.78;5079287;28;20236;-83
2022/01/28 11:04:36;;;;;;;14.00;9.40;;;;;;;6.81;100.00;98029.13;5082540;28;20220;-82
2022/01/28 11:07:04;;;;;;;13.13;8.33;;;;;;;6.98;100.00;98011.19;5076077;28;20227;-82
2022/01/28 11:09:32;;;;;;;12.73;8.93;;;;;;;7.18;100.00;98017.06;5080199;28;20204;-82
2022/01/28 11:12:00;;;;;;;13.37;8.73;;;;;;;7.46;100.00;98010.34;5082990;28;20201;-83
2022/01/28 11:14:29;;;;;;;11.57;8.10;;;;;;;7.70;100.00;98008.63;5073083;28;20213;-83
2022/01/28 11:16:56;;;;;;;13.43;8.70;;;;;;;7.79;100.00;98010.28;5067236;28;20296;-84
2022/01/28 11:19:27;;;;;;;12.37;8.10;;;;;;;7.77;99.74;98005.06;5075504;28;20197;-85
2022/01/28 11:22:25;;;;;;;13.13;8.17;;;;;;;7.79;99.45;98002.22;5074498;28;20288;-83
2022/01/28 11:25:10;;;;;;;14.43;9.30;;;;;;;7.86;99.80;98008.56;5065236;28;20212;-83
2022/01/28 11:27:40;;;;;;;13.03;8.40;;;;;;;7.86;99.40;98000.50;5088721;28;20236;-83
2022/01/28 11:30:25;;;;;;;12.53;8.60;;;;;;;7.84;98.90;97989.06;5077751;28;20206;-84
2022/01/28 11:33:05;;;;;;;13.47;9.27;;;;;;;8.06;98.75;97982.94;5077308;28;20230;-84
2022/01/28 11:35:36;;;;;;;12.03;9.33;;;;;;;7.95;98.59;97972.56;5093950;28;20213;-83
2022/01/28 11:38:36;;;;;;;12.73;9.07;;;;;;;8.13;99.60;97972.31;5077261;28;20270;-84
2022/01/28 11:41:09;;;;;;;14.53;9.67;;;;;;;8.59;99.48;97967.91;5083832;28;20212;-83
2022/01/28 11:43:45;;;;;;;14.53;8.60;;;;;;;8.78;94.17;97955.78;5067064;28;20236;-84
2022/01/28 11:46:20;;;;;;;12.70;8.63;;;;;;;9.06;94.91;97949.69;5089784;28;20201;-83
2022/01/28 11:49:24;;;;;;;11.47;7.80;;;;;;;8.94;89.60;97948.44;5070199;28;20244;-84
2022/01/28 11:51:51;;;;;;;12.10;8.03;;;;;;;9.00;90.92;97944.19;5083633;28;20216;-84
2022/01/28 11:54:34;;;;;;;15.20;8.07;;;;;;;8.99;91.84;97946.03;5083888;28;20201;-83
2022/01/28 11:57:16;;;;;;;11.40;7.27;;;;;;;8.60;90.51;97937.25;5080523;28;20316;-83
2022/01/28 11:59:44;;;;;;;9.93;7.47;;;;;;;8.28;92.69;97922.94;5078729;28;20223;-84
2022/01/28 12:02:15;;;;;;;13.83;6.70;;;;;;;8.18;94.07;97926.88;5079420;28;20221;-84
2022/01/28 12:04:44;;;;;;;10.67;8.03;;;;;;;8.14;94.96;97925.56;5083546;28;20208;-85
2022/01/28 12:07:15;;;;;;;11.67;7.13;;;;;;;8.41;96.11;97924.28;5081402;28;20217;-83
2022/01/28 12:09:45;;;;;;;10.67;6.87;;;;;;;8.20;92.26;97923.00;5082804;28;20207;-84